sensor_id;sensor_type;location;lat;lon;timestamp;pressure;altitude;pressure_sealevel;temperature;humidity
12664;BME280;6396;58.490;15.528;2023-09-19T00:00:56;99358.03;;;17.23;100.00
12664;BME280;6396;58.490;15.528;2023-09-19T00:03:23;99315.44;;;16.49;100.00
12664;BME280;6396;58.490;15.528;2023-09-19T00:05:52;98828.50;;;14.02;100.00
12664;BME280;6396;58.490;15.528;2023-09-19T00:08:21;99245.66;;;16.67;100.00
12664;BME280;6396;58.490;15.528;2023-09-19T00:10:50;99388.78;;;17.52;100.00
12664;BME280;6396;58.490;15.528;2023-09-19T00:13:19;99029.84;;;15.35;100.00
12664;BME280;6396;58.490;15.528;2023-09-19T00:15:47;99391.00;;;17.58;100.00
12664;BME280;6396;58.490;15.528;2023-09-19T00:18:15;99250.63;;;16.48;100.00
12664;BME280;6396;58.490;15.528;2023-09-19T00:20:42;98916.38;;;14.75;100.00
12664;BME280;6396;58.490;15.528;2023-09-19T00:23:14;99282.41;;;16.39;100.00
12664;BME280;6396;58.490;15.528;2023-09-19T00:25:42;99115.66;;;15.88;100.00
12664;BME280;6396;58.490;15.528;2023-09-19T00:28:09;98812.16;;;13.96;100.00
12664;BME280;6396;58.490;15.528;2023-09-19T00:30:37;98857.19;;;14.60;100.00
12664;BME280;6396;58.490;15.528;2023-09-19T00:33:04;98954.34;;;15.25;100.00
12664;BME280;6396;58.490;15.528;2023-09-19T00:35:33;98790.34;;;13.91;100.00
12664;BME280;6396;58.490;15.528;2023-09-19T00:38:02;98831.16;;;14.52;100.00
12664;BME280;6396;58.490;15.528;2023-09-19T00:40:31;99417.00;;;17.67;100.00
12664;BME280;6396;58.490;15.528;2023-09-19T00:42:58;99431.88;;;17.58;100.00
12664;BME280;6396;58.490;15.528;2023-09-19T00:45:26;99344.06;;;17.66;100.00
12664;BME280;6396;58.490;15.528;2023-09-19T00:47:53;98852.13;;;14.81;100.00
12664;BME280;6396;58.490;15.528;2023-09-19T00:50:24;98942.31;;;15.32;100.00
12664;BME280;6396;58.490;15.528;2023-09-19T00:52:54;98731.88;;;14.05;100.00
12664;BME280;6396;58.490;15.528;2023-09-19T00:55:23;99325.09;;;17.58;100.00
12664;BME280;6396;58.490;15.528;2023-09-19T00:57:52;99316.25;;;17.58;100.00
12664;BME280;6396;58.490;15.528;2023-09-19T01:00:19;99138.28;;;16.54;100.00
12664;BME280;6396;58.490;15.528;2023-09-19T01:02:47;99205.22;;;16.97;100.00
12664;BME280;6396;58.490;15.528;2023-09-19T01:05:14;99022.72;;;15.85;100.00
12664;BME280;6396;58.490;15.528;2023-09-19T01:07:41;99206.25;;;17.07;100.00
12664;BME280;6396;58.490;15.528;2023-09-19T01:10:11;99322.47;;;17.69;100.00
12664;BME280;6396;58.490;15.528;2023-09-19T01:12:48;99167.16;;;16.48;100.00
12664;BME280;6396;58.490;15.528;2023-09-19T01:15:28;99215.25;;;17.17;100.00
12664;BME280;6396;58.490;15.528;2023-09-19T01:18:03;99232.56;;;17.35;100.00
12664;BME280;6396;58.490;15.528;2023-09-19T01:20:39;99235.84;;;17.39;100.00
12664;BME280;6396;58.490;15.528;2023-09-19T01:23:17;98873.75;;;15.12;100.00
12664;BME280;6396;58.490;15.528;2023-09-19T01:28:53;99281.84;;;17.77;100.00
12664;BME280;6396;58.490;15.528;2023-09-19T01:31:31;99251.44;;;17.32;100.00
12664;BME280;6396;58.490;15.528;2023-09-19T01:34:02;99233.78;;;17.42;100.00
12664;BME280;6396;58.490;15.528;2023-09-19T01:36:31;99131.84;;;16.81;100.00
12664;BME280;6396;58.490;15.528;2023-09-19T01:39:02;99171.69;;;17.06;100.00
12664;BME280;6396;58.490;15.528;2023-09-19T01:41:58;99199.31;;;17.28;100.00
12664;BME280;6396;58.490;15.528;2023-09-19T01:44:36;99245.00;;;17.58;100.00
12664;BME280;6396;58.490;15.528;2023-09-19T01:47:15;99229.53;;;17.40;100.00
12664;BME280;6396;58.490;15.528;2023-09-19T01:49:50;99229.84;;;17.59;100.00
12664;BME280;6396;58.490;15.528;2023-09-19T01:52:27;99228.78;;;17.61;100.00
12664;BME280;6396;58.490;15.528;2023-09-19T01:55:00;99020.56;;;16.37;100.00
12664;BME280;6396;58.490;15.528;2023-09-19T01:57:35;99185.75;;;17.42;100.00
12664;BME280;6396;58.490;15.528;2023-09-19T02:00:06;98826.13;;;15.33;100.00
12664;BME280;6396;58.490;15.528;2023-09-19T02:02:37;99220.91;;;17.71;100.00
12664;BME280;6396;58.490;15.528;2023-09-19T02:05:04;98931.63;;;15.92;100.00
12664;BME280;6396;58.490;15.528;2023-09-19T02:07:31;99039.47;;;16.68;100.00
12664;BME280;6396;58.490;15.528;2023-09-19T02:09:58;99080.50;;;17.01;100.00
12664;BME280;6396;58.490;15.528;2023-09-19T02:12:25;99001.50;;;16.54;100.00
12664;BME280;6396;58.490;15.528;2023-09-19T02:14:52;99186.56;;;17.66;100.00
12664;BME280;6396;58.490;15.528;2023-09-19T02:17:19;99080.88;;;16.96;100.00
12664;BME280;6396;58.490;15.528;2023-09-19T02:19:47;99195.31;;;17.68;100.00
12664;BME280;6396;58.490;15.528;2023-09-19T02:22:14;98815.22;;;15.48;100.00
12664;BME280;6396;58.490;15.528;2023-09-19T02:24:41;99235.06;;;17.60;100.00
12664;BME280;6396;58.490;15.528;2023-09-19T02:27:08;99065.72;;;16.62;100.00
12664;BME280;6396;58.490;15.528;2023-09-19T02:29:38;99176.00;;;17.76;100.00
12664;BME280;6396;58.490;15.528;2023-09-19T02:32:05;99009.75;;;16.62;100.00
12664;BME280;6396;58.490;15.528;2023-09-19T02:34:31;98732.59;;;15.15;100.00
12664;BME280;6396;58.490;15.528;2023-09-19T02:37:03;98814.09;;;15.40;100.00
12664;BME280;6396;58.490;15.528;2023-09-19T02:39:31;99182.81;;;17.80;100.00
12664;BME280;6396;58.490;15.528;2023-09-19T02:41:58;99109.38;;;17.52;100.00
12664;BME280;6396;58.490;15.528;2023-09-19T02:44:25;98890.38;;;16.21;100.00
12664;BME280;6396;58.490;15.528;2023-09-19T02:46:52;98771.06;;;15.22;100.00
12664;BME280;6396;58.490;15.528;2023-09-19T02:49:18;99157.19;;;17.66;100.00
12664;BME280;6396;58.490;15.528;2023-09-19T02:51:45;98787.38;;;15.41;100.00
12664;BME280;6396;58.490;15.528;2023-09-19T02:54:14;99079.72;;;17.33;100.00
12664;BME280;6396;58.490;15.528;2023-09-19T02:56:43;99057.38;;;17.12;100.00
12664;BME280;6396;58.490;15.528;2023-09-19T02:59:09;99162.19;;;17.82;100.00
12664;BME280;6396;58.490;15.528;2023-09-19T03:01:36;99052.94;;;17.35;100.00
12664;BME280;6396;58.490;15.528;2023-09-19T03:04:04;99052.06;;;17.45;100.00
12664;BME280;6396;58.490;15.528;2023-09-19T03:06:32;99140.69;;;17.83;100.00
12664;BME280;6396;58.490;15.528;2023-09-19T03:08:59;99006.22;;;17.18;100.00
12664;BME280;6396;58.490;15.528;2023-09-19T03:11:28;98861.09;;;16.43;100.00
12664;BME280;6396;58.490;15.528;2023-09-19T03:13:55;98988.03;;;17.01;100.00
12664;BME280;6396;58.490;15.528;2023-09-19T03:16:21;99096.97;;;17.84;100.00
12664;BME280;6396;58.490;15.528;2023-09-19T03:18:48;99117.38;;;17.86;100.00
12664;BME280;6396;58.490;15.528;2023-09-19T03:21:15;98932.16;;;17.00;100.00
12664;BME280;6396;58.490;15.528;2023-09-19T03:23:43;99116.41;;;17.87;100.00
12664;BME280;6396;58.490;15.528;2023-09-19T03:26:11;98872.63;;;16.66;100.00
12664;BME280;6396;58.490;15.528;2023-09-19T03:28:41;98909.13;;;16.77;100.00
12664;BME280;6396;58.490;15.528;2023-09-19T03:31:09;99143.09;;;17.87;100.00
12664;BME280;6396;58.490;15.528;2023-09-19T03:33:36;98883.91;;;16.69;100.00
12664;BME280;6396;58.490;15.528;2023-09-19T03:36:03;99062.03;;;17.88;100.00
12664;BME280;6396;58.490;15.528;2023-09-19T03:38:31;98955.66;;;17.17;100.00
12664;BME280;6396;58.490;15.528;2023-09-19T03:40:58;98969.34;;;17.34;100.00
12664;BME280;6396;58.490;15.528;2023-09-19T03:43:25;98947.06;;;17.24;100.00
12664;BME280;6396;58.490;15.528;2023-09-19T03:45:53;99092.63;;;17.95;100.00
12664;BME280;6396;58.490;15.528;2023-09-19T03:48:20;99066.63;;;17.97;100.00
12664;BME280;6396;58.490;15.528;2023-09-19T03:50:48;98870.47;;;16.71;100.00
12664;BME280;6396;58.490;15.528;2023-09-19T03:53:15;98904.50;;;17.01;100.00
12664;BME280;6396;58.490;15.528;2023-09-19T03:55:44;98956.63;;;17.27;100.00
12664;BME280;6396;58.490;15.528;2023-09-19T03:58:11;99040.28;;;17.92;100.00
12664;BME280;6396;58.490;15.528;2023-09-19T04:00:38;98950.19;;;17.29;100.00
12664;BME280;6396;58.490;15.528;2023-09-19T04:03:06;98921.09;;;17.15;100.00
12664;BME280;6396;58.490;15.528;2023-09-19T04:05:33;98966.31;;;17.50;100.00
12664;BME280;6396;58.490;15.528;2023-09-19T04:08:00;98946.78;;;17.38;100.00
12664;BME280;6396;58.490;15.528;2023-09-19T04:10:27;98922.31;;;17.22;100.00
12664;BME280;6396;58.490;15.528;2023-09-19T04:12:54;99032.06;;;17.84;100.00
12664;BME280;6396;58.490;15.528;2023-09-19T04:15:22;98909.34;;;17.18;100.00
12664;BME280;6396;58.490;15.528;2023-09-19T04:17:49;99031.31;;;17.82;100.00
12664;BME280;6396;58.490;15.528;2023-09-19T04:20:17;99059.84;;;17.81;100.00
12664;BME280;6396;58.490;15.528;2023-09-19T04:22:45;98986.34;;;17.55;100.00
12664;BME280;6396;58.490;15.528;2023-09-19T04:25:12;99011.44;;;17.86;100.00
12664;BME280;6396;58.490;15.528;2023-09-19T04:27:39;98958.66;;;17.56;100.00
12664;BME280;6396;58.490;15.528;2023-09-19T04:30:08;98908.97;;;17.33;100.00
12664;BME280;6396;58.490;15.528;2023-09-19T04:32:37;98960.63;;;17.43;100.00
12664;BME280;6396;58.490;15.528;2023-09-19T04:35:06;98892.84;;;17.24;100.00
12664;BME280;6396;58.490;15.528;2023-09-19T04:37:36;98976.47;;;17.78;100.00
12664;BME280;6396;58.490;15.528;2023-09-19T04:40:04;98913.56;;;17.31;100.00
12664;BME280;6396;58.490;15.528;2023-09-19T04:42:32;98946.31;;;17.55;100.00
12664;BME280;6396;58.490;15.528;2023-09-19T04:44:58;98991.13;;;17.95;100.00
12664;BME280;6396;58.490;15.528;2023-09-19T04:47:26;98816.81;;;16.76;100.00
12664;BME280;6396;58.490;15.528;2023-09-19T04:49:53;98637.53;;;15.87;100.00
12664;BME280;6396;58.490;15.528;2023-09-19T04:52:19;98959.81;;;17.86;100.00
12664;BME280;6396;58.490;15.528;2023-09-19T04:54:48;98866.88;;;17.37;100.00
12664;BME280;6396;58.490;15.528;2023-09-19T04:57:15;98966.44;;;18.02;100.00
12664;BME280;6396;58.490;15.528;2023-09-19T04:59:41;98988.91;;;18.00;100.00
12664;BME280;6396;58.490;15.528;2023-09-19T05:02:08;98933.41;;;17.71;100.00
12664;BME280;6396;58.490;15.528;2023-09-19T05:04:35;98931.66;;;17.81;100.00
12664;BME280;6396;58.490;15.528;2023-09-19T05:07:02;98920.47;;;17.56;100.00
12664;BME280;6396;58.490;15.528;2023-09-19T05:09:29;98725.09;;;16.67;100.00
12664;BME280;6396;58.490;15.528;2023-09-19T05:12:00;98882.97;;;17.57;100.00
12664;BME280;6396;58.490;15.528;2023-09-19T05:14:27;98828.78;;;17.46;100.00
12664;BME280;6396;58.490;15.528;2023-09-19T05:17:36;98570.72;;;15.90;100.00
12664;BME280;6396;58.490;15.528;2023-09-19T05:19:45;98808.81;;;17.29;100.00
12664;BME280;6396;58.490;15.528;2023-09-19T05:22:12;98851.94;;;17.45;100.00
12664;BME280;6396;58.490;15.528;2023-09-19T05:24:39;98918.16;;;17.94;100.00
12664;BME280;6396;58.490;15.528;2023-09-19T05:27:07;98911.81;;;17.95;100.00
12664;BME280;6396;58.490;15.528;2023-09-19T05:29:34;98923.38;;;17.96;100.00
12664;BME280;6396;58.490;15.528;2023-09-19T05:32:01;98908.19;;;17.64;100.00
12664;BME280;6396;58.490;15.528;2023-09-19T05:34:29;98525.03;;;15.62;100.00
12664;BME280;6396;58.490;15.528;2023-09-19T05:36:56;98736.44;;;16.80;100.00
12664;BME280;6396;58.490;15.528;2023-09-19T05:39:22;98916.06;;;17.98;100.00
12664;BME280;6396;58.490;15.528;2023-09-19T05:41:49;98791.88;;;17.19;100.00
12664;BME280;6396;58.490;15.528;2023-09-19T05:44:17;98923.97;;;17.99;100.00
12664;BME280;6396;58.490;15.528;2023-09-19T05:46:44;98757.09;;;16.99;100.00
12664;BME280;6396;58.490;15.528;2023-09-19T05:49:13;98902.72;;;17.98;100.00
12664;BME280;6396;58.490;15.528;2023-09-19T05:51:41;98808.88;;;17.50;100.00
12664;BME280;6396;58.490;15.528;2023-09-19T05:54:08;98794.44;;;17.41;100.00
12664;BME280;6396;58.490;15.528;2023-09-19T05:56:36;98905.34;;;18.09;100.00
12664;BME280;6396;58.490;15.528;2023-09-19T05:59:03;98449.84;;;15.38;100.00
12664;BME280;6396;58.490;15.528;2023-09-19T06:01:31;98971.75;;;18.13;100.00
12664;BME280;6396;58.490;15.528;2023-09-19T06:04:00;98665.81;;;16.74;100.00
12664;BME280;6396;58.490;15.528;2023-09-19T06:06:26;98870.97;;;17.83;100.00
12664;BME280;6396;58.490;15.528;2023-09-19T06:08:53;98912.06;;;18.24;100.00
12664;BME280;6396;58.490;15.528;2023-09-19T06:11:20;98788.56;;;17.58;100.00
12664;BME280;6396;58.490;15.528;2023-09-19T06:13:47;98853.06;;;17.95;100.00
12664;BME280;6396;58.490;15.528;2023-09-19T06:16:14;98894.06;;;18.26;100.00
12664;BME280;6396;58.490;15.528;2023-09-19T06:18:42;98697.81;;;17.06;100.00
12664;BME280;6396;58.490;15.528;2023-09-19T06:21:09;98854.50;;;17.78;100.00
12664;BME280;6396;58.490;15.528;2023-09-19T06:23:36;98881.56;;;18.26;100.00
12664;BME280;6396;58.490;15.528;2023-09-19T06:26:03;98853.88;;;17.86;100.00
12664;BME280;6396;58.490;15.528;2023-09-19T06:28:31;98648.50;;;16.69;100.00
12664;BME280;6396;58.490;15.528;2023-09-19T06:30:58;98877.47;;;18.22;100.00
12664;BME280;6396;58.490;15.528;2023-09-19T06:33:25;98832.59;;;17.84;100.00
12664;BME280;6396;58.490;15.528;2023-09-19T06:35:53;98865.06;;;18.21;100.00
12664;BME280;6396;58.490;15.528;2023-09-19T06:38:24;98802.28;;;17.65;100.00
12664;BME280;6396;58.490;15.528;2023-09-19T06:40:51;98797.22;;;17.83;100.00
12664;BME280;6396;58.490;15.528;2023-09-19T06:43:18;98883.03;;;18.51;100.00
12664;BME280;6396;58.490;15.528;2023-09-19T06:45:45;98880.47;;;18.70;100.00
12664;BME280;6396;58.490;15.528;2023-09-19T06:48:12;98877.38;;;19.14;100.00
12664;BME280;6396;58.490;15.528;2023-09-19T06:50:39;98800.16;;;19.00;100.00
12664;BME280;6396;58.490;15.528;2023-09-19T06:53:08;98898.78;;;19.63;100.00
12664;BME280;6396;58.490;15.528;2023-09-19T06:55:35;98608.97;;;18.66;100.00
12664;BME280;6396;58.490;15.528;2023-09-19T06:58:02;98810.63;;;20.37;100.00
12664;BME280;6396;58.490;15.528;2023-09-19T07:00:31;98803.19;;;20.31;100.00
12664;BME280;6396;58.490;15.528;2023-09-19T07:03:02;98856.91;;;20.10;100.00
12664;BME280;6396;58.490;15.528;2023-09-19T07:05:34;98804.63;;;19.39;100.00
12664;BME280;6396;58.490;15.528;2023-09-19T07:08:03;98840.16;;;19.41;100.00
12664;BME280;6396;58.490;15.528;2023-09-19T07:10:33;98819.31;;;19.05;100.00
12664;BME280;6396;58.490;15.528;2023-09-19T07:13:00;98646.16;;;17.90;100.00
12664;BME280;6396;58.490;15.528;2023-09-19T07:15:28;98794.19;;;18.68;100.00
12664;BME280;6396;58.490;15.528;2023-09-19T07:17:56;98770.38;;;18.35;100.00
12664;BME280;6396;58.490;15.528;2023-09-19T07:20:24;98806.25;;;18.62;100.00
12664;BME280;6396;58.490;15.528;2023-09-19T07:22:52;98847.72;;;18.87;100.00
12664;BME280;6396;58.490;15.528;2023-09-19T07:25:20;98805.09;;;18.55;100.00
12664;BME280;6396;58.490;15.528;2023-09-19T07:27:48;98814.50;;;18.50;100.00
12664;BME280;6396;58.490;15.528;2023-09-19T07:30:16;98862.91;;;18.77;100.00
12664;BME280;6396;58.490;15.528;2023-09-19T07:32:43;98867.09;;;18.70;100.00
12664;BME280;6396;58.490;15.528;2023-09-19T07:35:10;98775.16;;;18.11;100.00
12664;BME280;6396;58.490;15.528;2023-09-19T07:37:37;98849.91;;;18.72;100.00
12664;BME280;6396;58.490;15.528;2023-09-19T07:40:05;98848.38;;;18.70;100.00
12664;BME280;6396;58.490;15.528;2023-09-19T07:42:33;98880.31;;;18.71;100.00
12664;BME280;6396;58.490;15.528;2023-09-19T07:45:04;98849.06;;;18.72;100.00
12664;BME280;6396;58.490;15.528;2023-09-19T07:47:31;98792.84;;;18.32;100.00
12664;BME280;6396;58.490;15.528;2023-09-19T07:49:58;98848.47;;;18.38;100.00
12664;BME280;6396;58.490;15.528;2023-09-19T07:52:28;98827.28;;;18.26;100.00
12664;BME280;6396;58.490;15.528;2023-09-19T07:54:59;98802.78;;;17.79;100.00
12664;BME280;6396;58.490;15.528;2023-09-19T07:57:26;98880.91;;;18.13;100.00
12664;BME280;6396;58.490;15.528;2023-09-19T07:59:54;98680.03;;;16.64;100.00
12664;BME280;6396;58.490;15.528;2023-09-19T08:02:22;98909.97;;;17.75;100.00
12664;BME280;6396;58.490;15.528;2023-09-19T08:04:49;98860.56;;;17.80;100.00
12664;BME280;6396;58.490;15.528;2023-09-19T08:07:17;98890.44;;;17.74;100.00
12664;BME280;6396;58.490;15.528;2023-09-19T08:09:44;98851.19;;;17.43;100.00
12664;BME280;6396;58.490;15.528;2023-09-19T08:12:14;98854.75;;;17.33;100.00
12664;BME280;6396;58.490;15.528;2023-09-19T08:14:40;98870.09;;;17.62;100.00
12664;BME280;6396;58.490;15.528;2023-09-19T08:17:07;98871.66;;;17.97;100.00
12664;BME280;6396;58.490;15.528;2023-09-19T08:19:36;98831.16;;;19.03;100.00
12664;BME280;6396;58.490;15.528;2023-09-19T08:22:06;98594.25;;;18.22;100.00
12664;BME280;6396;58.490;15.528;2023-09-19T08:24:36;98759.06;;;19.96;100.00
12664;BME280;6396;58.490;15.528;2023-09-19T08:27:04;98863.84;;;20.41;100.00
12664;BME280;6396;58.490;15.528;2023-09-19T08:29:33;98858.91;;;19.60;100.00
12664;BME280;6396;58.490;15.528;2023-09-19T08:32:00;98884.44;;;19.25;100.00
12664;BME280;6396;58.490;15.528;2023-09-19T08:34:27;98854.50;;;18.91;100.00
12664;BME280;6396;58.490;15.528;2023-09-19T08:36:59;98696.66;;;17.72;100.00
12664;BME280;6396;58.490;15.528;2023-09-19T08:39:26;98864.56;;;19.67;100.00
12664;BME280;6396;58.490;15.528;2023-09-19T08:41:57;98782.25;;;19.31;100.00
12664;BME280;6396;58.490;15.528;2023-09-19T08:44:24;98911.88;;;20.71;100.00
12664;BME280;6396;58.490;15.528;2023-09-19T08:46:54;98867.19;;;21.26;100.00
12664;BME280;6396;58.490;15.528;2023-09-19T08:49:36;98886.59;;;21.92;100.00
12664;BME280;6396;58.490;15.528;2023-09-19T08:52:12;98884.41;;;21.06;100.00
12664;BME280;6396;58.490;15.528;2023-09-19T08:54:45;98458.34;;;17.30;100.00
12664;BME280;6396;58.490;15.528;2023-09-19T08:57:15;98623.75;;;18.11;100.00
12664;BME280;6396;58.490;15.528;2023-09-19T08:59:48;98922.78;;;19.25;100.00
12664;BME280;6396;58.490;15.528;2023-09-19T09:02:16;98873.84;;;20.11;100.00
12664;BME280;6396;58.490;15.528;2023-09-19T09:04:45;98600.75;;;19.25;100.00
12664;BME280;6396;58.490;15.528;2023-09-19T09:07:14;98854.75;;;21.70;100.00
12664;BME280;6396;58.490;15.528;2023-09-19T09:09:42;98756.72;;;21.39;100.00
12664;BME280;6396;58.490;15.528;2023-09-19T09:12:11;98769.31;;;21.56;100.00
12664;BME280;6396;58.490;15.528;2023-09-19T09:14:39;98838.09;;;22.01;100.00
12664;BME280;6396;58.490;15.528;2023-09-19T09:17:07;98866.13;;;22.60;100.00
12664;BME280;6396;58.490;15.528;2023-09-19T09:19:34;98896.53;;;22.17;100.00
12664;BME280;6396;58.490;15.528;2023-09-19T09:22:07;98822.03;;;21.39;100.00
12664;BME280;6396;58.490;15.528;2023-09-19T09:24:36;98861.84;;;20.99;100.00
12664;BME280;6396;58.490;15.528;2023-09-19T09:27:05;98646.50;;;19.69;100.00
12664;BME280;6396;58.490;15.528;2023-09-19T09:29:43;98829.22;;;20.48;100.00
12664;BME280;6396;58.490;15.528;2023-09-19T09:32:19;98805.88;;;20.31;100.00
12664;BME280;6396;58.490;15.528;2023-09-19T09:34:49;98766.72;;;19.72;100.00
12664;BME280;6396;58.490;15.528;2023-09-19T09:37:17;98889.81;;;20.22;100.00
12664;BME280;6396;58.490;15.528;2023-09-19T09:39:53;98790.13;;;19.70;100.00
12664;BME280;6396;58.490;15.528;2023-09-19T09:42:31;98485.06;;;17.79;100.00
12664;BME280;6396;58.490;15.528;2023-09-19T09:45:14;98858.09;;;19.88;100.00
12664;BME280;6396;58.490;15.528;2023-09-19T09:47:41;98393.81;;;16.97;100.00
12664;BME280;6396;58.490;15.528;2023-09-19T09:50:07;98852.00;;;19.77;100.00
12664;BME280;6396;58.490;15.528;2023-09-19T09:52:46;98859.06;;;19.78;100.00
12664;BME280;6396;58.490;15.528;2023-09-19T09:55:14;98677.03;;;18.43;100.00
12664;BME280;6396;58.490;15.528;2023-09-19T09:57:41;98622.56;;;17.95;100.00
12664;BME280;6396;58.490;15.528;2023-09-19T10:00:10;98781.53;;;18.79;100.00
12664;BME280;6396;58.490;15.528;2023-09-19T10:02:45;98683.63;;;18.09;100.00
12664;BME280;6396;58.490;15.528;2023-09-19T10:05:13;98881.75;;;19.15;100.00
12664;BME280;6396;58.490;15.528;2023-09-19T10:07:47;98733.97;;;18.13;100.00
12664;BME280;6396;58.490;15.528;2023-09-19T10:10:29;98915.19;;;19.00;100.00
12664;BME280;6396;58.490;15.528;2023-09-19T10:13:05;98718.41;;;17.67;100.00
12664;BME280;6396;58.490;15.528;2023-09-19T10:15:33;98767.84;;;17.83;100.00
12664;BME280;6396;58.490;15.528;2023-09-19T10:18:04;98818.59;;;18.13;100.00
12664;BME280;6396;58.490;15.528;2023-09-19T10:20:34;99013.75;;;18.74;100.00
12664;BME280;6396;58.490;15.528;2023-09-19T10:23:06;98464.28;;;15.79;100.00
12664;BME280;6396;58.490;15.528;2023-09-19T10:25:41;98938.47;;;18.38;100.00
12664;BME280;6396;58.490;15.528;2023-09-19T10:28:10;98701.47;;;17.05;100.00
12664;BME280;6396;58.490;15.528;2023-09-19T10:30:37;98864.72;;;17.73;100.00
12664;BME280;6396;58.490;15.528;2023-09-19T10:33:11;98914.91;;;18.11;100.00
12664;BME280;6396;58.490;15.528;2023-09-19T10:35:39;98903.06;;;18.25;100.00
12664;BME280;6396;58.490;15.528;2023-09-19T10:38:07;98960.75;;;18.27;100.00
12664;BME280;6396;58.490;15.528;2023-09-19T10:40:37;98931.22;;;18.29;100.00
12664;BME280;6396;58.490;15.528;2023-09-19T10:43:12;98301.34;;;14.58;100.00
12664;BME280;6396;58.490;15.528;2023-09-19T10:45:53;98515.31;;;15.84;100.00
12664;BME280;6396;58.490;15.528;2023-09-19T10:48:22;98621.66;;;16.07;100.00
12664;BME280;6396;58.490;15.528;2023-09-19T10:50:56;98394.97;;;15.26;100.00
12664;BME280;6396;58.490;15.528;2023-09-19T10:53:26;98913.06;;;18.23;100.00
12664;BME280;6396;58.490;15.528;2023-09-19T10:55:59;98932.00;;;18.20;100.00
12664;BME280;6396;58.490;15.528;2023-09-19T10:58:36;98525.50;;;15.79;100.00
12664;BME280;6396;58.490;15.528;2023-09-19T11:01:07;98602.97;;;16.18;100.00
12664;BME280;6396;58.490;15.528;2023-09-19T11:03:38;98742.06;;;16.33;100.00
12664;BME280;6396;58.490;15.528;2023-09-19T11:06:11;98483.44;;;15.17;100.00
12664;BME280;6396;58.490;15.528;2023-09-19T11:08:56;98915.13;;;17.56;100.00
12664;BME280;6396;58.490;15.528;2023-09-19T11:11:43;98903.59;;;17.44;100.00
12664;BME280;6396;58.490;15.528;2023-09-19T11:14:55;98291.13;;;13.16;100.00
12664;BME280;6396;58.490;15.528;2023-09-19T11:17:40;98687.59;;;15.71;100.00
12664;BME280;6396;58.490;15.528;2023-09-19T11:20:30;98304.19;;;13.30;100.00
12664;BME280;6396;58.490;15.528;2023-09-19T11:23:27;98387.84;;;13.93;100.00
12664;BME280;6396;58.490;15.528;2023-09-19T11:25:59;98942.19;;;17.51;100.00
12664;BME280;6396;58.490;15.528;2023-09-19T11:28:36;99002.47;;;17.32;100.00
12664;BME280;6396;58.490;15.528;2023-09-19T11:34:50;98961.97;;;16.83;100.00
12664;BME280;6396;58.490;15.528;2023-09-19T11:40:46;98548.59;;;14.31;100.00
12664;BME280;6396;58.490;15.528;2023-09-19T11:43:31;98550.44;;;14.42;100.00
12664;BME280;6396;58.490;15.528;2023-09-19T11:46:05;98374.72;;;13.44;100.00
12664;BME280;6396;58.490;15.528;2023-09-19T11:48:32;98954.09;;;17.14;100.00
12664;BME280;6396;58.490;15.528;2023-09-19T11:51:16;98745.66;;;15.77;100.00
12664;BME280;6396;58.490;15.528;2023-09-19T11:53:48;98681.91;;;15.29;100.00
12664;BME280;6396;58.490;15.528;2023-09-19T11:56:18;98542.22;;;14.34;100.00
12664;BME280;6396;58.490;15.528;2023-09-19T11:58:46;98799.94;;;15.16;100.00
12664;BME280;6396;58.490;15.528;2023-09-19T12:01:22;98836.69;;;16.04;100.00
12664;BME280;6396;58.490;15.528;2023-09-19T12:03:53;98873.16;;;16.25;100.00
12664;BME280;6396;58.490;15.528;2023-09-19T12:06:24;98728.41;;;15.47;100.00
12664;BME280;6396;58.490;15.528;2023-09-19T12:08:51;98660.81;;;15.04;100.00
12664;BME280;6396;58.490;15.528;2023-09-19T12:11:21;98786.78;;;15.73;100.00
12664;BME280;6396;58.490;15.528;2023-09-19T12:13:49;98798.44;;;16.05;100.00
12664;BME280;6396;58.490;15.528;2023-09-19T12:16:19;98849.34;;;15.89;100.00
12664;BME280;6396;58.490;15.528;2023-09-19T12:18:49;98958.69;;;16.90;100.00
12664;BME280;6396;58.490;15.528;2023-09-19T12:21:29;98773.88;;;15.55;100.00
12664;BME280;6396;58.490;15.528;2023-09-19T12:24:04;98724.28;;;15.43;100.00
12664;BME280;6396;58.490;15.528;2023-09-19T12:26:39;98715.28;;;15.33;100.00
12664;BME280;6396;58.490;15.528;2023-09-19T12:29:19;98752.06;;;15.74;100.00
12664;BME280;6396;58.490;15.528;2023-09-19T12:31:51;98576.22;;;14.98;100.00
12664;BME280;6396;58.490;15.528;2023-09-19T12:34:20;98990.09;;;17.31;100.00
12664;BME280;6396;58.490;15.528;2023-09-19T12:36:49;98898.31;;;17.11;100.00
12664;BME280;6396;58.490;15.528;2023-09-19T12:39:30;98718.81;;;16.02;100.00
12664;BME280;6396;58.490;15.528;2023-09-19T12:41:57;98960.13;;;17.38;100.00
12664;BME280;6396;58.490;15.528;2023-09-19T12:44:25;98538.31;;;15.07;100.00
12664;BME280;6396;58.490;15.528;2023-09-19T12:46:51;98933.09;;;17.32;100.00
12664;BME280;6396;58.490;15.528;2023-09-19T12:49:20;98721.81;;;15.97;100.00
12664;BME280;6396;58.490;15.528;2023-09-19T12:51:54;98937.47;;;17.33;100.00
12664;BME280;6396;58.490;15.528;2023-09-19T12:54:22;98940.25;;;17.09;100.00
12664;BME280;6396;58.490;15.528;2023-09-19T12:56:50;98878.69;;;16.68;100.00
12664;BME280;6396;58.490;15.528;2023-09-19T12:59:29;98637.75;;;15.16;100.00
12664;BME280;6396;58.490;15.528;2023-09-19T13:02:03;98443.34;;;13.96;100.00
12664;BME280;6396;58.490;15.528;2023-09-19T13:04:33;98759.31;;;15.72;100.00
12664;BME280;6396;58.490;15.528;2023-09-19T13:07:07;98600.22;;;14.51;100.00
12664;BME280;6396;58.490;15.528;2023-09-19T13:09:34;99010.03;;;16.70;100.00
12664;BME280;6396;58.490;15.528;2023-09-19T13:12:01;98994.75;;;16.61;100.00
12664;BME280;6396;58.490;15.528;2023-09-19T13:14:29;98992.22;;;16.36;100.00